Springfield, Missouri
Current Conditions -  °F | °C
As of 10:35 PM on Thursday 18 Dec 2014 (Local Time) from KSGF Reporting Station
Haze Haze  
Wind Chill: 37°   Ceiling: 300
Heat Index: 37°   Visibility: 2.5mi
Dew Point: 36°   Wind: 3mph
Humidity: 96%   Direction: 60°ENE
Pressure: 30.22"   Gusts: NA
Location:  37.21°N, 93.29°W
Report Text: KSGF 190435Z 06003KT 2 1/2SM BR OVC003 03/02 A3022 RMK AO2 T00280022
Loading
Personal Weather Stations






























Interactive Weather Map New forecast layout! Learn more

10-Day Weather Forecast

Advertisements
Track Severe Weather on mobile